Time;durP1;ratioP1;P1;durP2;ratioP2;P2;SDS_P1;SDS_P2;PMS_P1;PMS_P2;Temp;Humidity;BMP_temperature;BMP_pressure;BME280_temperature;BME280_humidity;BME280_pressure;Samples;Min_cycle;Max_cycle;Signal;HPM_P1;HPM_P2
2022/12/04 02:27:54;;;;;;;19.12;12.03;;;;;;;-2.81;73.77;101490.88;1755523;80;22442;-38
2022/12/04 02:30:21;;;;;;;18.10;11.22;;;;;;;-2.70;72.86;101494.66;1762174;81;21003;-38
2022/12/04 02:33:02;;;;;;;20.68;12.68;;;;;;;-4.44;72.61;101232.84;1758899;81;21145;-38
2022/12/04 02:35:40;;;;;;;18.70;12.30;;;;;;;-2.79;71.93;101501.30;1728042;83;21005;-38
2022/12/04 02:38:17;;;;;;;22.75;11.75;;;;;;;-2.82;71.55;101497.76;1758948;81;21021;-38
2022/12/04 02:40:52;;;;;;;18.82;11.95;;;;;;;-2.83;71.52;101496.12;1728749;83;22080;-38
2022/12/04 02:43:28;;;;;;;18.35;10.85;;;;;;;-2.87;71.81;101491.78;1758981;81;20998;-37
2022/12/04 02:46:00;;;;;;;19.23;11.90;;;;;;;-2.83;71.94;101498.78;1728651;83;21150;-38
2022/12/04 02:48:28;;;;;;;17.87;10.93;;;;;;;-2.79;71.77;101501.30;1785918;80;21012;-38
2022/12/04 02:50:55;;;;;;;16.25;10.10;;;;;;;-2.76;71.04;101499.55;1757023;81;21549;-38
2022/12/04 02:53:35;;;;;;;21.50;11.80;;;;;;;-2.78;70.67;101497.61;1775232;80;21486;-38
2022/12/04 02:56:19;;;;;;;16.93;10.23;;;;;;;-2.86;70.20;101496.58;1770938;81;21063;-38
2022/12/04 02:59:02;;;;;;;16.85;10.30;;;;;;;-2.90;70.09;101497.51;1770871;81;21281;-38
2022/12/04 03:01:35;;;;;;;21.82;10.93;;;;;;;-2.91;70.22;101499.89;1771166;81;20988;-38
2022/12/04 03:04:15;;;;;;;17.42;9.88;;;;;;;-2.96;70.50;101500.23;1770833;81;20975;-38
2022/12/04 03:06:45;;;;;;;18.02;10.35;;;;;;;-2.99;70.55;101497.49;1771115;81;21000;-38
2022/12/04 03:09:37;;;;;;;22.30;10.90;;;;;;;-2.97;70.73;101506.57;1771012;81;21044;-38
2022/12/04 03:12:31;;;;;;;15.45;10.20;;;;;;;-3.00;70.75;101502.49;1766705;81;21165;-38
2022/12/04 03:15:02;;;;;;;17.57;9.85;;;;;;;-3.00;70.61;101499.84;1770078;81;22179;-38
2022/12/04 03:17:50;;;;;;;19.65;10.78;;;;;;;-3.00;70.82;101503.82;1770738;81;20996;-39
2022/12/04 03:20:17;;;;;;;18.50;10.50;;;;;;;-3.02;70.95;101501.92;1755610;81;21023;-38
2022/12/04 03:22:45;;;;;;;20.15;10.88;;;;;;;-2.97;70.94;101493.30;1770965;81;21486;-38
2022/12/04 03:25:12;;;;;;;16.95;11.05;;;;;;;-2.92;70.83;101498.26;1770902;81;21481;-38
2022/12/04 03:27:57;;;;;;;18.00;10.95;;;;;;;-2.96;71.11;101501.05;1770456;81;20956;-38
2022/12/04 03:30:23;;;;;;;17.80;11.38;;;;;;;-2.97;71.03;101499.94;1770229;81;21032;-38
2022/12/04 03:33:14;;;;;;;15.58;9.70;;;;;;;-3.04;71.02;101499.98;1770331;81;21232;-38
2022/12/04 03:35:49;;;;;;;15.78;9.30;;;;;;;-3.07;71.08;101505.23;1768314;81;21012;-38
2022/12/04 03:38:29;;;;;;;16.95;10.45;;;;;;;-3.09;70.78;101503.30;1770523;81;21153;-38
2022/12/04 03:41:20;;;;;;;18.05;9.63;;;;;;;-3.10;70.61;101502.98;1770314;81;20972;-38
2022/12/04 03:44:10;;;;;;;15.83;9.08;;;;;;;-3.09;70.73;101504.62;1770109;81;21032;-39
2022/12/04 03:46:51;;;;;;;13.22;8.30;;;;;;;-3.02;70.74;101505.90;1770090;81;21501;-38
2022/12/04 03:49:30;;;;;;;12.78;8.78;;;;;;;-2.98;70.39;101505.75;1770472;81;21032;-38
2022/12/04 03:52:05;;;;;;;12.28;7.08;;;;;;;-3.01;69.97;101517.33;1770507;81;21217;-38
2022/12/04 03:54:46;;;;;;;11.80;8.00;;;;;;;-3.03;69.40;101507.44;1770532;81;20981;-38
2022/12/04 03:57:17;;;;;;;12.10;7.90;;;;;;;-3.08;69.14;101508.09;1770506;81;20960;-38
2022/12/04 04:00:04;;;;;;;13.75;8.58;;;;;;;-3.11;68.90;101513.84;1770816;81;21044;-39
2022/12/04 04:02:46;;;;;;;13.32;8.63;;;;;;;-3.14;68.97;101509.76;1770213;81;21529;-39
2022/12/04 04:05:12;;;;;;;15.10;8.28;;;;;;;-3.21;69.06;101509.02;1770528;81;21211;-38
2022/12/04 04:07:47;;;;;;;13.20;7.67;;;;;;;-3.18;69.00;101511.73;1770297;81;20917;-38
2022/12/04 04:10:17;;;;;;;14.58;9.10;;;;;;;-3.16;69.04;101518.98;1770254;81;20965;-38
2022/12/04 04:26:34;;;;;;;13.53;8.95;;;;;;;-3.18;68.98;101516.53;1765067;81;21037;-39
2022/12/04 04:29:01;;;;;;;14.28;9.33;;;;;;;-3.17;69.12;101524.80;1751386;82;21033;-39
2022/12/04 04:32:14;;;;;;;15.48;10.40;;;;;;;-3.14;69.07;101527.52;1751210;82;23138;-39
2022/12/04 04:34:49;;;;;;;15.43;9.75;;;;;;;-3.16;69.17;101530.41;1728045;82;21085;-39
2022/12/04 04:37:31;;;;;;;14.43;10.20;;;;;;;-3.17;69.38;101526.62;1751274;82;20993;-39
2022/12/04 04:40:15;;;;;;;14.87;9.70;;;;;;;-3.18;69.38;101519.19;1751290;82;21047;-38
2022/12/04 04:42:52;;;;;;;15.55;9.60;;;;;;;-3.21;69.56;101522.28;1751294;81;21076;-39
2022/12/04 04:45:42;;;;;;;18.82;10.70;;;;;;;-3.23;69.58;101523.00;1751066;81;21258;-39
2022/12/04 04:48:11;;;;;;;;;;;;;;;-3.19;69.76;101517.55;1753942;82;21020;-39
2022/12/04 04:50:38;;;;;;;17.17;9.55;;;;;;;-3.17;69.81;101517.34;1751003;81;20122;-39
2022/12/04 04:53:08;;;;;;;19.92;10.60;;;;;;;-3.22;69.96;101518.00;1751290;82;21358;-39
2022/12/04 04:55:35;;;;;;;17.80;10.88;;;;;;;-3.13;70.00;101519.34;1750062;81;21080;-39
2022/12/04 04:58:07;;;;;;;16.77;11.12;;;;;;;-3.05;69.75;101509.00;1751530;82;21142;-39
2022/12/04 05:00:34;;;;;;;17.15;10.40;;;;;;;-3.05;69.55;101526.75;1751524;82;20977;-39
2022/12/04 05:03:01;;;;;;;16.17;10.80;;;;;;;-3.10;69.66;101513.60;1751381;82;20969;-39
2022/12/04 05:05:27;;;;;;;16.45;11.20;;;;;;;-3.11;69.58;101519.95;1751243;81;20980;-39
2022/12/04 05:07:54;;;;;;;18.12;11.38;;;;;;;-3.12;69.64;101515.67;1751368;82;21471;-39
2022/12/04 05:10:21;;;;;;;16.37;10.78;;;;;;;-3.16;69.94;101514.48;1751422;82;22054;-39
2022/12/04 05:12:48;;;;;;;17.77;11.65;;;;;;;-3.14;70.01;101519.05;1746427;82;21527;-39
2022/12/04 05:15:15;;;;;;;17.48;10.15;;;;;;;-3.11;70.09;101512.00;1751458;82;21543;-39
2022/12/04 05:17:42;;;;;;;20.50;12.88;;;;;;;-3.07;69.98;101514.52;1751407;82;21008;-39
2022/12/04 05:20:10;;;;;;;18.60;11.10;;;;;;;-3.05;69.91;101514.81;1751327;82;21033;-39
2022/12/04 05:22:38;;;;;;;16.65;10.80;;;;;;;-3.05;69.95;101509.51;1751453;82;21732;-39
2022/12/04 05:25:06;;;;;;;19.73;12.35;;;;;;;-3.06;69.82;101507.37;1751225;82;21020;-39
2022/12/04 05:27:33;;;;;;;18.12;10.85;;;;;;;-3.16;70.09;101507.05;1751431;81;21025;-39
2022/12/04 05:29:59;;;;;;;21.00;11.38;;;;;;;-3.15;70.08;101513.98;1751384;82;21453;-39
2022/12/04 05:32:27;;;;;;;19.07;11.83;;;;;;;-3.14;70.20;101521.70;1751703;82;20965;-39
2022/12/04 05:34:55;;;;;;;19.73;11.35;;;;;;;-3.14;70.23;101523.02;1751511;82;21815;-39
2022/12/04 05:37:22;;;;;;;20.88;12.45;;;;;;;-3.13;70.21;101517.20;1751577;82;20942;-39
2022/12/04 05:39:49;;;;;;;23.20;12.58;;;;;;;-3.15;70.53;101528.02;1751357;82;21534;-39
2022/12/04 05:42:17;;;;;;;22.98;12.33;;;;;;;-3.11;70.35;101525.27;1751430;82;20991;-39
2022/12/04 05:44:44;;;;;;;20.10;12.28;;;;;;;-3.09;70.25;101531.66;1751512;82;21077;-39
2022/12/04 05:47:11;;;;;;;21.40;12.58;;;;;;;-3.14;70.37;101533.64;1751348;82;21175;-39
2022/12/04 05:49:38;;;;;;;20.35;12.28;;;;;;;-3.13;70.39;101531.80;1751478;82;20930;-39
2022/12/04 05:52:05;;;;;;;19.87;12.68;;;;;;;-3.11;70.32;101538.53;1751551;82;21501;-39
2022/12/04 05:54:32;;;;;;;20.68;10.80;;;;;;;-3.14;70.47;101540.27;1751295;82;20953;-39
2022/12/04 05:56:59;;;;;;;23.85;12.78;;;;;;;-3.08;70.48;101542.58;1751257;82;21020;-39
2022/12/04 05:59:25;;;;;;;21.70;12.25;;;;;;;-3.05;70.58;101545.33;1751187;82;23146;-39
2022/12/04 06:01:52;;;;;;;20.88;12.80;;;;;;;-3.05;70.37;101544.00;1751365;82;21487;-39
2022/12/04 06:04:19;;;;;;;22.00;12.40;;;;;;;-3.04;70.42;101542.95;1751263;82;20957;-39
2022/12/04 06:06:46;;;;;;;21.23;11.93;;;;;;;-3.03;70.30;101543.25;1751335;81;20902;-39
2022/12/04 06:09:12;;;;;;;18.73;13.05;;;;;;;-3.05;70.24;101541.34;1751106;82;21040;-39
2022/12/04 06:11:40;;;;;;;19.42;11.97;;;;;;;-3.12;70.70;101550.16;1751175;82;23162;-39
2022/12/04 06:14:10;;;;;;;20.95;12.65;;;;;;;-3.08;70.76;101544.72;1751051;82;21033;-39
2022/12/04 06:16:45;;;;;;;20.62;12.63;;;;;;;-3.05;70.72;101540.02;1751248;82;20997;-39
2022/12/04 06:19:15;;;;;;;21.23;12.82;;;;;;;-2.98;70.65;101538.11;1751274;82;21060;-39
2022/12/04 06:21:43;;;;;;;20.70;12.98;;;;;;;-2.96;70.37;101538.72;1751234;82;21096;-39
2022/12/04 06:24:13;;;;;;;21.02;12.70;;;;;;;-3.01;70.55;101545.19;1751400;82;21143;-39
2022/12/04 06:26:40;;;;;;;22.55;13.48;;;;;;;-3.03;70.48;101547.23;1753116;81;20929;-40
2022/12/04 11:04:35;;;;;;;21.60;13.22;;;;;;;-3.20;71.93;101489.94;1836242;78;22652;-38
2022/12/04 11:07:10;;;;;;;17.07;11.55;;;;;;;-3.20;71.93;101489.94;1789898;79;20978;-37
2022/12/04 11:09:37;;;;;;;19.95;12.88;;;;;;;-3.24;70.61;101489.53;1787376;80;21302;-37
2022/12/04 11:12:18;;;;;;;18.07;11.63;;;;;;;-3.32;70.16;101491.66;1788268;80;21476;-38
2022/12/04 11:14:45;;;;;;;16.55;11.50;;;;;;;-3.36;69.94;101492.61;1788260;80;20946;-38
2022/12/04 11:17:17;;;;;;;22.95;12.15;;;;;;;-3.38;69.92;101493.32;1788199;80;21544;-38
2022/12/04 11:19:44;;;;;;;17.80;11.57;;;;;;;-3.44;70.15;101496.86;1788213;80;20943;-37
2022/12/04 11:22:16;;;;;;;21.12;12.07;;;;;;;-3.49;70.25;101495.36;1788274;80;21235;-37
2022/12/04 11:24:55;;;;;;;17.98;11.30;;;;;;;-3.53;69.94;101497.61;1787940;80;21511;-38
2022/12/04 11:27:30;;;;;;;17.63;11.23;;;;;;;-3.47;70.24;101495.94;1788910;80;20991;-38
2022/12/04 11:30:00;;;;;;;19.12;11.85;;;;;;;-3.46;70.14;101491.45;1788363;80;21082;-38
2022/12/04 11:32:30;;;;;;;;;;;;;;;-3.54;69.90;101488.56;1791261;80;21026;-38
2022/12/04 11:35:00;;;;;;;17.10;9.03;;;;;;;-3.87;69.83;101434.97;1787941;80;21214;-38
2022/12/04 11:37:31;;;;;;;17.12;10.30;;;;;;;-3.59;69.80;101497.67;1788518;80;21013;-38
2022/12/04 11:39:58;;;;;;;21.77;11.73;;;;;;;-3.52;70.00;101485.17;1788201;80;20990;-38
2022/12/04 11:42:29;;;;;;;19.20;11.08;;;;;;;-3.45;69.76;101490.43;1788322;80;21515;-38
2022/12/04 11:44:58;;;;;;;17.55;10.05;;;;;;;-3.47;69.55;101480.03;1788340;80;21007;-38
2022/12/04 11:47:29;;;;;;;20.50;11.20;;;;;;;-3.43;69.62;101480.41;1788423;80;21140;-38
2022/12/04 11:50:13;;;;;;;18.35;10.82;;;;;;;-3.42;69.06;101480.71;1788197;80;20958;-38
2022/12/04 11:53:14;;;;;;;15.90;10.05;;;;;;;-3.55;68.44;101475.81;1788044;80;20966;-38
2022/12/04 11:55:50;;;;;;;23.70;10.55;;;;;;;-3.48;68.59;101475.75;1788200;80;21005;-38
2022/12/04 11:58:29;;;;;;;16.60;10.72;;;;;;;-3.53;68.59;101476.91;1788597;80;21120;-37
2022/12/04 12:01:10;;;;;;;19.80;10.63;;;;;;;-3.57;68.79;101475.20;1756185;80;21154;-38
2022/12/04 12:03:45;;;;;;;18.48;10.98;;;;;;;-3.55;68.66;101478.47;1788006;80;21019;-39
2022/12/04 12:06:26;;;;;;;16.50;10.10;;;;;;;-3.64;68.30;101473.64;1787635;80;21477;-39
2022/12/04 12:09:37;;;;;;;19.25;9.70;;;;;;;-3.60;68.46;101482.28;1788780;80;21547;-39
2022/12/04 12:12:15;;;;;;;15.03;9.13;;;;;;;-3.66;68.53;101478.33;1788895;80;21543;-39
2022/12/04 12:15:30;;;;;;;16.93;9.10;;;;;;;-3.66;68.89;101482.31;1788226;80;21236;-39
2022/12/04 12:18:18;;;;;;;17.07;9.93;;;;;;;-3.58;68.91;101487.34;1788149;80;20919;-39
2022/12/04 12:20:56;;;;;;;16.45;9.50;;;;;;;-3.51;68.74;101486.28;1788222;80;21011;-39
2022/12/04 12:23:44;;;;;;;17.17;9.75;;;;;;;-3.42;68.73;101489.48;1788112;80;21030;-39
2022/12/04 12:26:14;;;;;;;15.53;9.28;;;;;;;-3.40;68.20;101482.64;1788577;80;20979;-39
2022/12/04 12:29:13;;;;;;;14.98;8.60;;;;;;;-3.35;68.26;101487.61;1787837;80;23161;-39
2022/12/04 12:32:13;;;;;;;17.35;10.10;;;;;;;-3.27;67.90;101486.00;1787357;80;20955;-39
2022/12/04 12:34:42;;;;;;;18.50;12.88;;;;;;;-3.24;67.62;101486.07;1788106;80;21025;-39
2022/12/04 12:37:26;;;;;;;29.70;19.70;;;;;;;-3.23;66.73;101483.21;1788379;80;20904;-39
2022/12/04 12:40:18;;;;;;;77.15;48.50;;;;;;;-3.19;66.08;101476.95;1787760;80;21018;-39
2022/12/04 12:42:56;;;;;;;20.20;11.50;;;;;;;-3.17;65.95;101475.72;1788094;80;21149;-39
2022/12/04 12:45:44;;;;;;;15.72;9.55;;;;;;;-3.18;65.74;101474.09;1788139;80;21590;-39
2022/12/04 12:48:28;;;;;;;13.60;8.20;;;;;;;-3.13;65.25;101481.39;1788084;80;22023;-39
2022/12/04 12:51:23;;;;;;;15.13;8.83;;;;;;;-3.13;64.89;101487.52;1788203;80;21094;-39
2022/12/04 12:53:52;;;;;;;14.95;8.88;;;;;;;-3.13;64.80;101476.91;1775309;80;21071;-40
2022/12/04 12:56:24;;;;;;;13.83;8.20;;;;;;;-3.09;64.71;101478.09;1788420;80;21235;-40
2022/12/04 12:58:55;;;;;;;15.13;8.75;;;;;;;-3.07;64.29;101475.22;1786551;79;21473;-39
2022/12/04 13:01:45;;;;;;;17.82;8.20;;;;;;;-3.08;64.43;101479.72;1788137;80;21503;-39
2022/12/04 13:04:42;;;;;;;14.18;8.98;;;;;;;-3.02;64.13;101482.02;1786335;80;21076;-39
2022/12/04 13:07:21;;;;;;;15.03;8.10;;;;;;;-2.96;63.86;101477.69;1785112;80;21030;-39
2022/12/04 13:10:03;;;;;;;16.40;9.28;;;;;;;-2.92;63.77;101480.19;1785174;80;21238;-40
2022/12/04 13:12:38;;;;;;;13.62;8.80;;;;;;;-2.87;63.57;101481.17;1785041;80;20982;-40
2022/12/04 13:15:10;;;;;;;19.65;9.05;;;;;;;-2.89;63.50;101480.56;1784563;80;20950;-40
2022/12/04 13:17:37;;;;;;;23.05;10.00;;;;;;;-2.87;63.35;101481.68;1755491;80;20982;-39
2022/12/04 13:20:08;;;;;;;17.50;9.48;;;;;;;-2.86;63.14;101473.51;1785175;80;20899;-39
2022/12/04 13:22:52;;;;;;;18.30;10.25;;;;;;;-2.86;63.03;101475.34;1784980;80;22024;-39
2022/12/04 13:25:28;;;;;;;17.10;9.63;;;;;;;-2.90;62.82;101473.63;1784442;80;21548;-39
2022/12/04 13:28:26;;;;;;;17.77;9.33;;;;;;;-2.97;62.87;101470.75;1785123;80;20884;-39
2022/12/04 13:31:13;;;;;;;16.87;9.90;;;;;;;-2.99;62.84;101467.48;1784753;80;21038;-40
2022/12/04 13:34:09;;;;;;;20.65;11.45;;;;;;;-3.06;63.03;101470.22;1785158;80;21080;-40
2022/12/04 13:37:10;;;;;;;17.15;10.08;;;;;;;-3.08;63.09;101471.76;1727261;80;21320;-40
2022/12/04 13:40:05;;;;;;;23.32;9.65;;;;;;;-3.07;62.95;101473.39;1779824;80;21006;-39
2022/12/04 13:42:32;;;;;;;17.77;10.15;;;;;;;-3.05;62.85;101477.67;1785082;80;21548;-40
2022/12/04 13:45:03;;;;;;;19.07;8.83;;;;;;;-3.16;62.36;101476.02;1785215;80;21018;-40
2022/12/04 13:47:33;;;;;;;17.65;8.75;;;;;;;-3.14;62.22;101473.95;1784972;80;20974;-39
2022/12/04 13:50:23;;;;;;;14.73;8.68;;;;;;;-3.14;61.81;101479.25;1785250;80;21191;-39
2022/12/04 13:52:52;;;;;;;14.78;7.90;;;;;;;-3.21;61.64;101475.05;1785307;80;20939;-40
2022/12/04 13:55:32;;;;;;;13.28;7.62;;;;;;;-3.27;61.40;101477.23;1785090;80;21448;-39
2022/12/04 13:58:16;;;;;;;13.20;7.58;;;;;;;-3.30;61.06;101477.16;1784777;80;21626;-39
2022/12/04 14:00:43;;;;;;;14.95;7.42;;;;;;;-3.38;61.02;101483.22;1784914;80;21593;-39
2022/12/04 14:03:26;;;;;;;13.98;7.20;;;;;;;-3.49;60.92;101476.80;1785074;80;21943;-38
2022/12/04 14:05:53;;;;;;;14.25;7.28;;;;;;;-3.60;61.05;101470.34;1785040;80;20954;-39
2022/12/04 14:08:24;;;;;;;16.60;7.08;;;;;;;-3.66;61.11;101467.73;1785098;80;21539;-39
2022/12/04 14:11:07;;;;;;;15.70;7.17;;;;;;;-3.71;61.07;101472.34;1785108;80;20935;-40
2022/12/04 14:13:43;;;;;;;14.30;6.87;;;;;;;-3.79;61.27;101475.77;1784943;80;20999;-39
2022/12/04 14:16:35;;;;;;;14.13;7.37;;;;;;;-3.83;61.34;101466.63;1785105;80;21260;-40
2022/12/04 14:19:03;;;;;;;15.10;7.17;;;;;;;-3.90;61.49;101460.55;1785120;80;20923;-39
2022/12/04 14:21:42;;;;;;;15.23;7.33;;;;;;;-4.01;61.86;101454.89;1784929;80;21005;-39
2022/12/04 14:24:30;;;;;;;16.62;7.37;;;;;;;-4.04;61.91;101455.33;1785576;80;20994;-40
2022/12/04 14:26:57;;;;;;;13.50;6.97;;;;;;;-4.09;62.33;101462.28;1785194;80;21069;-39
2022/12/04 14:29:35;;;;;;;12.80;6.10;;;;;;;-4.16;62.46;101476.05;1754767;80;21141;-40
2022/12/04 14:32:09;;;;;;;19.82;7.53;;;;;;;-4.13;62.52;101473.00;1784850;80;20931;-39
2022/12/04 14:34:35;;;;;;;32.75;21.25;;;;;;;-4.10;62.31;101480.00;1785299;80;20978;-39
2022/12/04 14:37:03;;;;;;;25.27;17.23;;;;;;;-4.13;62.44;101479.11;1785222;80;21003;-39
2022/12/04 14:39:35;;;;;;;17.85;10.10;;;;;;;-4.10;62.20;101472.56;1785099;80;20975;-39
2022/12/04 14:42:15;;;;;;;13.65;7.42;;;;;;;-4.14;62.39;101480.13;1785036;80;21199;-39
2022/12/04 14:44:45;;;;;;;16.05;7.60;;;;;;;-4.16;62.30;101476.05;1785014;80;20986;-39
2022/12/04 14:47:53;;;;;;;17.12;8.13;;;;;;;-4.21;62.45;101470.06;1785165;80;20919;-39
2022/12/04 14:50:51;;;;;;;12.10;6.65;;;;;;;-4.28;62.67;101471.95;1784978;80;20969;-39
2022/12/04 14:53:46;;;;;;;15.10;7.60;;;;;;;-4.30;62.84;101470.01;1785015;80;21022;-40
2022/12/04 14:57:10;;;;;;;12.90;7.33;;;;;;;-4.28;62.88;101469.30;1784990;80;21139;-40
2022/12/04 14:59:46;;;;;;;13.28;7.47;;;;;;;-4.36;63.13;101456.81;1784791;80;20918;-39
2022/12/04 15:02:22;;;;;;;18.40;11.95;;;;;;;-4.39;63.28;101459.35;1785009;80;21014;-39
2022/12/04 15:04:49;;;;;;;20.35;8.58;;;;;;;-4.40;63.18;101456.40;1789146;80;21489;-39
2022/12/04 15:07:22;;;;;;;20.80;11.00;;;;;;;-4.42;63.42;101451.84;1793441;80;20986;-39
2022/12/04 15:12:51;;;;;;;12.75;7.28;;;;;;;-4.48;63.64;101457.45;1793227;80;21516;-39
2022/12/04 15:15:26;;;;;;;16.23;9.18;;;;;;;-4.50;63.71;101454.70;1793462;80;20994;-39
2022/12/04 15:18:10;;;;;;;19.30;9.53;;;;;;;-4.52;63.76;101454.12;1793454;80;21584;-39
2022/12/04 15:20:52;;;;;;;19.07;8.03;;;;;;;-4.52;63.65;101450.15;1793211;80;21069;-39
2022/12/04 15:23:30;;;;;;;12.50;7.12;;;;;;;-4.50;63.76;101454.70;1793406;80;21253;-39
2022/12/04 15:26:00;;;;;;;16.57;8.70;;;;;;;-4.51;63.78;101453.11;1793340;80;20982;-39
2022/12/04 15:28:46;;;;;;;;;;;;;;;-4.53;63.86;101448.01;1796425;80;20922;-39
2022/12/04 15:31:18;;;;;;;18.70;8.83;;;;;;;-4.53;63.86;101448.01;1781591;80;20084;-39
2022/12/04 15:33:45;;;;;;;18.65;8.98;;;;;;;-4.60;64.05;101446.42;1793287;80;21495;-40
2022/12/04 15:36:17;;;;;;;28.40;10.13;;;;;;;-4.60;63.92;101445.09;1793538;80;21289;-39
2022/12/04 15:38:46;;;;;;;17.82;8.95;;;;;;;-4.60;63.82;101446.42;1788504;80;20982;-39
2022/12/04 15:41:34;;;;;;;20.05;8.65;;;;;;;-4.63;63.95;101442.84;1793309;80;21669;-39
2022/12/04 15:44:02;;;;;;;21.02;9.85;;;;;;;-4.61;63.83;101446.11;1792777;80;21556;-39
2022/12/04 15:46:32;;;;;;;19.85;9.28;;;;;;;-4.65;63.89;101444.91;1793268;80;21022;-39
2022/12/04 15:49:08;;;;;;;;;;;;;;;-5.08;63.88;101379.27;1796194;80;21935;-39
2022/12/04 15:51:35;;;;;;;19.67;8.65;;;;;;;-4.68;64.00;101434.72;1792136;80;20496;-39
2022/12/04 15:54:02;;;;;;;17.20;10.58;;;;;;;-4.75;64.06;101429.98;1793549;80;21072;-39
2022/12/04 15:56:29;;;;;;;22.32;9.28;;;;;;;-4.73;64.05;101425.27;1793493;80;21085;-39
2022/12/04 15:58:59;;;;;;;22.30;10.60;;;;;;;-4.69;63.96;101423.32;1793411;80;21065;-40
2022/12/04 16:01:26;;;;;;;18.65;10.08;;;;;;;-4.72;64.13;101421.61;1793466;80;21186;-40
2022/12/04 16:03:54;;;;;;;17.55;9.68;;;;;;;-4.73;64.03;101422.63;1793305;80;20986;-41
2022/12/04 16:06:25;;;;;;;17.57;9.28;;;;;;;-4.68;63.87;101422.81;1779689;80;21519;-41
2022/12/04 16:09:13;;;;;;;20.48;9.83;;;;;;;-4.71;64.05;101419.27;1779779;80;21540;-41
2022/12/04 16:11:40;;;;;;;18.75;8.63;;;;;;;-4.70;63.93;101422.23;1779484;80;21007;-39
2022/12/04 16:14:17;;;;;;;22.73;10.58;;;;;;;-4.68;63.86;101429.42;1779626;80;21251;-39
2022/12/04 16:16:47;;;;;;;18.25;9.90;;;;;;;-4.71;63.78;101425.38;1778750;80;20927;-39
2022/12/04 16:19:33;;;;;;;19.65;9.80;;;;;;;-4.69;63.82;101425.97;1779548;80;21017;-39
2022/12/04 16:22:02;;;;;;;17.23;9.50;;;;;;;-4.68;63.73;101420.98;1779579;80;20971;-39
2022/12/04 16:24:28;;;;;;;19.77;8.83;;;;;;;-4.72;63.69;101417.13;1779510;80;21499;-39
2022/12/04 16:26:56;;;;;;;21.97;8.40;;;;;;;-4.68;63.73;101422.81;1779519;80;23123;-38
2022/12/04 16:29:23;;;;;;;16.60;9.33;;;;;;;-4.64;63.50;101417.40;1779722;80;20990;-39
2022/12/04 16:31:50;;;;;;;16.80;8.90;;;;;;;-4.66;63.41;101420.78;1779530;80;20978;-39
2022/12/04 16:34:17;;;;;;;16.97;9.23;;;;;;;-4.62;63.37;101427.28;1779594;80;21027;-39
2022/12/04 16:36:43;;;;;;;18.48;9.30;;;;;;;-4.61;63.11;101428.91;1779500;80;20974;-39
2022/12/04 16:39:10;;;;;;;23.30;8.63;;;;;;;-4.62;63.21;101430.74;1779626;80;21195;-39
2022/12/04 16:41:39;;;;;;;14.83;8.98;;;;;;;-4.60;62.88;101431.86;1779480;80;20962;-39
2022/12/04 16:44:16;;;;;;;18.20;8.90;;;;;;;-4.58;62.89;101427.16;1747580;80;20982;-39
2022/12/04 16:46:43;;;;;;;14.60;8.08;;;;;;;-4.55;62.67;101426.76;1779516;80;21078;-39
2022/12/04 16:49:11;;;;;;;15.30;8.05;;;;;;;-4.57;62.61;101424.82;1779509;80;21085;-39
2022/12/04 16:51:42;;;;;;;14.68;8.30;;;;;;;-4.57;62.70;101422.17;1779851;80;21258;-39
2022/12/04 16:54:11;;;;;;;13.90;7.62;;;;;;;-4.51;62.38;101423.98;1779639;80;21002;-39
2022/12/04 16:56:37;;;;;;;14.75;8.23;;;;;;;-4.53;62.13;101422.86;1779815;80;21575;-39
2022/12/04 16:59:04;;;;;;;17.30;8.48;;;;;;;-4.55;62.28;101421.47;1779564;80;21461;-39
2022/12/04 17:01:36;;;;;;;14.20;7.08;;;;;;;-4.51;62.15;101414.22;1779673;80;20994;-39
2022/12/04 17:04:03;;;;;;;11.65;7.40;;;;;;;-4.45;61.89;101417.32;1779158;80;21298;-39
2022/12/04 17:06:32;;;;;;;11.80;6.60;;;;;;;-4.46;61.81;101424.17;1785009;80;21006;-39
2022/12/04 17:08:58;;;;;;;12.45;6.62;;;;;;;-4.41;61.60;101428.33;1784695;78;21006;-39
2022/12/04 17:11:26;;;;;;;13.60;7.03;;;;;;;-4.42;61.41;101426.19;1777299;80;21048;-39
2022/12/04 17:13:53;;;;;;;15.08;6.92;;;;;;;-4.40;61.37;101431.25;1777391;80;21099;-39
2022/12/04 17:16:20;;;;;;;15.75;7.53;;;;;;;-4.34;61.32;101437.03;1777252;80;21133;-39
2022/12/04 17:18:47;;;;;;;14.83;6.60;;;;;;;-4.34;61.20;101434.39;1777024;80;21558;-39
2022/12/04 17:21:14;;;;;;;12.35;6.70;;;;;;;-4.37;61.17;101429.52;1777557;80;21001;-39
2022/12/04 17:23:41;;;;;;;13.03;6.67;;;;;;;-4.37;61.26;101430.84;1777110;80;21556;-39
2022/12/04 17:26:11;;;;;;;12.80;6.28;;;;;;;-4.36;61.07;101425.86;1777394;80;21023;-39
2022/12/04 17:28:38;;;;;;;14.05;7.80;;;;;;;-4.40;60.78;101423.31;1777292;80;21184;-39
2022/12/04 17:31:15;;;;;;;11.93;7.12;;;;;;;-4.49;61.11;101425.89;1777175;80;21555;-39
2022/12/04 17:33:42;;;;;;;19.10;6.67;;;;;;;-4.51;61.15;101425.31;1777352;80;21023;-39
2022/12/04 17:36:13;;;;;;;10.90;6.50;;;;;;;-4.54;61.02;101420.42;1777433;80;21001;-39
2022/12/04 17:38:40;;;;;;;12.70;6.67;;;;;;;-4.59;61.22;101419.72;1777388;80;21079;-39
2022/12/04 17:41:08;;;;;;;14.35;7.33;;;;;;;-4.58;61.24;101424.51;1777257;80;21228;-39
2022/12/04 17:43:35;;;;;;;14.38;6.25;;;;;;;-4.64;61.37;101418.72;1777134;80;21083;-39
2022/12/04 17:46:07;;;;;;;13.35;7.67;;;;;;;-4.66;61.42;101422.92;1777397;80;20996;-39
2022/12/04 17:48:34;;;;;;;15.00;6.87;;;;;;;-4.66;61.47;101418.95;1746442;80;21043;-39
2022/12/04 17:51:14;;;;;;;10.98;6.65;;;;;;;-4.72;61.49;101427.72;1777524;80;20991;-39
2022/12/04 17:53:41;;;;;;;13.13;6.67;;;;;;;-4.70;61.53;101424.88;1777286;80;21291;-39
2022/12/04 17:56:11;;;;;;;13.35;7.08;;;;;;;-4.68;61.41;101421.48;1777077;80;21529;-39
2022/12/04 17:58:38;;;;;;;11.08;6.00;;;;;;;-4.66;61.27;101428.72;1777330;80;20980;-39
2022/12/04 18:01:19;;;;;;;12.63;6.20;;;;;;;-4.65;61.11;101423.73;1777299;80;20948;-39
2022/12/04 18:03:55;;;;;;;11.93;5.95;;;;;;;-4.69;61.10;101431.77;1776556;80;21063;-39
2022/12/04 18:06:24;;;;;;;11.90;5.70;;;;;;;-4.68;61.12;101432.08;1786264;80;21099;-39
2022/12/04 18:08:51;;;;;;;10.78;6.00;;;;;;;-4.71;61.12;101436.47;1788873;79;20928;-39
2022/12/04 18:11:19;;;;;;;12.23;5.92;;;;;;;-4.76;61.20;101433.64;1789087;80;20948;-39
2022/12/04 18:13:48;;;;;;;13.28;6.00;;;;;;;-4.76;61.28;101437.09;1788865;80;20987;-39
2022/12/04 18:16:15;;;;;;;13.18;5.90;;;;;;;-4.76;61.20;101440.25;1789264;80;21027;-39
2022/12/04 18:18:45;;;;;;;10.88;5.78;;;;;;;-4.78;61.33;101434.34;1788977;80;21299;-40
2022/12/04 18:21:11;;;;;;;11.75;6.30;;;;;;;-4.74;61.28;101431.61;1788992;80;21474;-40
2022/12/04 18:23:43;;;;;;;12.75;6.72;;;;;;;-4.73;61.09;101431.89;1788765;80;21011;-40
2022/12/04 18:26:07;;;;;;;13.40;7.00;;;;;;;-4.68;60.93;101426.78;1788850;80;20971;-39
2022/12/04 18:28:34;;;;;;;14.47;7.65;;;;;;;-4.63;60.69;101434.91;1788849;79;20957;-40
2022/12/04 18:31:05;;;;;;;16.48;7.70;;;;;;;-4.67;60.64;101437.67;1789095;80;21615;-40
2022/12/04 18:33:36;;;;;;;13.10;7.87;;;;;;;-4.68;60.63;101432.89;1788901;80;21020;-39
2022/12/04 18:36:03;;;;;;;13.30;7.70;;;;;;;-4.71;60.53;101435.97;1788944;79;21556;-39
2022/12/04 18:38:30;;;;;;;14.38;7.40;;;;;;;-4.71;60.46;101439.12;1788855;79;21549;-39
2022/12/04 18:41:09;;;;;;;19.37;7.75;;;;;;;-4.65;60.40;101450.20;1788988;80;21004;-39
2022/12/04 18:43:38;;;;;;;14.68;7.90;;;;;;;-4.64;60.35;101447.83;1788859;80;21277;-39
2022/12/04 18:46:08;;;;;;;17.12;8.08;;;;;;;-4.63;60.23;101455.57;1789154;80;21010;-39
2022/12/04 18:48:36;;;;;;;;;;;;;;;-4.57;60.25;101461.36;1791573;80;21011;-39
2022/12/04 18:51:19;;;;;;;15.72;7.67;;;;;;;-4.48;60.15;101467.23;1789225;80;20214;-39
2022/12/04 18:53:46;;;;;;;16.60;7.92;;;;;;;-4.48;60.00;101463.27;1788931;80;21027;-39
2022/12/04 18:56:13;;;;;;;25.20;8.50;;;;;;;-4.42;59.84;101466.41;1789142;80;21814;-40
2022/12/04 18:58:41;;;;;;;12.78;7.08;;;;;;;-4.35;59.54;101461.88;1788684;80;20928;-39
2022/12/04 19:01:12;;;;;;;17.70;8.23;;;;;;;-4.33;59.13;101469.11;1788852;80;20917;-39
2022/12/04 19:03:39;;;;;;;13.62;7.22;;;;;;;-4.38;59.07;101463.63;1788876;80;21826;-39
2022/12/04 19:06:07;;;;;;;14.70;8.08;;;;;;;-4.39;58.88;101468.63;1788892;79;21011;-39